Terminal Aerodrome Forecast
Issued by NWS

Home | Current Version | Previous Version | Text Only | Print | Product List | Glossary On
Versions: 1 2 3 4 5 6 7 8 9 10 11 12
000
FTUS46 KSGX 022300
TAFTRM
TAF
KTRM 022325Z 0300/0324 VRB06KT P6SM SKC
     FM030400 33008KT P6SM SKC
     FM030800 VRB05KT P6SM SKC
     FM032000 14008KT P6SM SKC=

USA.gov is the U.S. government's official web portal to all federal, state and local government web resources and services.